createdAt,value
2023-03-02T00:01:08.912Z,98783.7
2023-03-02T00:06:45.036Z,98785.2
2023-03-02T00:12:20.152Z,98783.2
2023-03-02T00:17:57.333Z,98785.6
2023-03-02T00:23:44.222Z,98785.9
2023-03-02T00:29:20.327Z,98786.1
2023-03-02T00:35:04.319Z,98784.5
2023-03-02T00:40:52.234Z,98781.5
2023-03-02T00:46:33.452Z,98781.7
2023-03-02T00:52:20.080Z,98787.2
2023-03-02T00:57:57.707Z,98784.4
2023-03-02T01:03:33.189Z,98783.5
2023-03-02T01:09:08.371Z,98782.4
2023-03-02T01:14:44.163Z,98783.7
2023-03-02T01:20:19.767Z,98783.7
2023-03-02T01:25:54.952Z,98783.7
2023-03-02T01:31:31.269Z,98779.7
2023-03-02T01:37:15.031Z,98779.3
2023-03-02T01:42:51.239Z,98768.2
2023-03-02T01:48:26.728Z,98761.2
2023-03-02T01:54:02.488Z,98754.9
2023-03-02T02:00:00.190Z,98751.2
2023-03-02T02:05:35.875Z,98747.6
2023-03-02T02:11:27.990Z,98744.9
2023-03-02T02:17:04.472Z,98740.9
2023-03-02T02:22:39.782Z,98728.8
2023-03-02T02:28:15.223Z,98716.7
2023-03-02T02:33:50.182Z,98716.9
2023-03-02T02:39:25.780Z,98716.8
2023-03-02T02:45:01.519Z,98723.9
2023-03-02T02:50:44.800Z,98721.7
2023-03-02T02:56:33.190Z,98720.9
2023-03-02T03:02:19.958Z,98715.4
2023-03-02T03:08:15.644Z,98720
2023-03-02T03:14:22.758Z,98720.1
2023-03-02T03:20:26.564Z,98718.5
2023-03-02T03:26:01.741Z,98724.2
2023-03-02T03:31:54.455Z,98719.7
2023-03-02T03:37:30.607Z,98712.7
2023-03-02T03:43:05.481Z,98702.8
2023-03-02T03:49:02.022Z,98712.8
2023-03-02T03:54:45.296Z,98737.7
2023-03-02T04:00:20.455Z,98745
2023-03-02T04:06:00.085Z,98745.5
2023-03-02T04:11:35.830Z,98739.9
2023-03-02T04:17:10.929Z,98750.9
2023-03-02T04:23:02.673Z,98767
2023-03-02T04:28:37.495Z,98765.9
2023-03-02T04:34:21.970Z,98774.1
2023-03-02T04:40:11.630Z,98771.4
2023-03-02T04:45:47.129Z,98774.3
2023-03-02T04:51:57.991Z,98771.4
2023-03-02T04:57:51.177Z,98768.5
2023-03-02T05:03:30.290Z,98762.1
2023-03-02T05:09:09.158Z,98768.8
2023-03-02T05:14:46.384Z,98773.8
2023-03-02T05:20:21.916Z,98774.1
2023-03-02T05:26:04.110Z,98771.5
2023-03-02T05:33:12.430Z,98787.6
2023-03-02T05:39:00.757Z,98806.7
2023-03-02T05:44:36.048Z,98793.7
2023-03-02T05:50:11.421Z,98786.4
2023-03-02T05:55:59.733Z,98785.8
2023-03-02T06:01:50.960Z,98796.5
2023-03-02T06:07:32.215Z,98796.5
2023-03-02T06:13:07.642Z,98797.5
2023-03-02T06:18:42.921Z,98794.7
2023-03-02T06:24:30.628Z,98783.8
2023-03-02T06:30:06.348Z,98786.4
2023-03-02T06:35:42.005Z,98782.3
2023-03-02T06:41:18.872Z,98790.4
2023-03-02T06:46:54.799Z,98795.7
2023-03-02T06:52:31.856Z,98806.1
2023-03-02T06:58:18.836Z,98808.3
2023-03-02T07:03:56.904Z,98811.6
2023-03-02T07:09:33.562Z,98814.2
2023-03-02T07:15:26.937Z,98812.1
2023-03-02T07:21:02.353Z,98810.3
2023-03-02T07:26:40.740Z,98810.4
2023-03-02T07:32:23.040Z,98819.4
2023-03-02T07:38:18.821Z,98823.5
2023-03-02T07:43:54.409Z,98832.4
2023-03-02T07:49:32.545Z,98831.9
2023-03-02T07:55:07.729Z,98841.2
2023-03-02T08:00:46.084Z,98842.3
2023-03-02T08:06:24.081Z,98845.5
2023-03-02T08:11:59.209Z,98855.2
2023-03-02T08:17:57.462Z,98859.8
2023-03-02T08:23:33.922Z,98858.1
2023-03-02T08:29:09.325Z,98870.3
2023-03-02T08:34:48.514Z,98867.5
2023-03-02T08:40:28.427Z,98875.9
2023-03-02T08:46:25.663Z,98875.9
2023-03-02T08:52:03.665Z,98877.8
2023-03-02T08:58:00.729Z,98879.5
2023-03-02T09:03:37.256Z,98884.1
2023-03-02T09:09:15.248Z,98885.9
2023-03-02T09:14:51.950Z,98883.1
2023-03-02T09:20:47.827Z,98880.5
2023-03-02T09:26:23.920Z,98881
2023-03-02T09:32:07.723Z,98879.8
2023-03-02T09:37:55.684Z,98882.9
2023-03-02T09:43:31.437Z,98885.1
2023-03-02T09:49:07.277Z,98879.1
2023-03-02T09:54:43.692Z,98886.6
2023-03-02T10:00:31.172Z,98885.5
2023-03-02T10:06:42.775Z,98890.9
2023-03-02T10:12:15.577Z,98898.9
2023-03-02T10:19:22.959Z,98904.6
2023-03-02T10:25:00.638Z,98895.4
2023-03-02T10:30:36.530Z,98898.6
2023-03-02T10:36:12.198Z,98898.4
2023-03-02T10:41:47.461Z,98890.1
2023-03-02T10:47:23.602Z,98884
2023-03-02T10:53:05.379Z,98885.8
2023-03-02T10:58:56.891Z,98881.4
2023-03-02T11:04:56.298Z,98874.1
2023-03-02T11:10:33.964Z,98873
2023-03-02T11:16:21.123Z,98872.5
2023-03-02T11:22:09.370Z,98876.2
2023-03-02T11:27:45.166Z,98870.3
2023-03-02T11:33:24.130Z,98873.6
2023-03-02T11:38:59.561Z,98875
2023-03-02T11:44:37.326Z,98881.5
2023-03-02T11:50:12.988Z,98887.5
2023-03-02T11:55:48.151Z,98889.6
2023-03-02T12:01:23.485Z,98885.1
2023-03-02T12:07:00.877Z,98878.3
2023-03-02T12:12:36.222Z,98876.6
2023-03-02T12:18:11.112Z,98878.3
2023-03-02T12:23:46.774Z,98873.6
2023-03-02T12:29:57.834Z,98875.5
2023-03-02T12:36:23.476Z,98857
2023-03-02T12:41:59.478Z,98863.7
2023-03-02T12:47:36.386Z,98852.3
2023-03-02T12:53:12.673Z,98849.9
2023-03-02T12:58:57.208Z,98851
2023-03-02T13:04:36.460Z,98837.8
2023-03-02T13:10:13.029Z,98830.7
2023-03-02T13:15:49.422Z,98832.6
2023-03-02T13:21:27.925Z,98827.8
2023-03-02T13:27:20.569Z,98824
2023-03-02T13:32:56.259Z,98820.7
2023-03-02T13:38:31.598Z,98821.2
2023-03-02T13:44:10.254Z,98828.1
2023-03-02T13:49:45.123Z,98830.1
2023-03-02T13:55:20.929Z,98833.3
2023-03-02T14:01:52.497Z,98823.5
2023-03-02T14:08:12.300Z,98827.4
2023-03-02T14:13:57.689Z,98834.7
2023-03-02T14:19:34.410Z,98835.6
2023-03-02T14:25:29.220Z,98829.8
2023-03-02T14:31:05.629Z,98826.6
2023-03-02T14:36:41.904Z,98825.5
2023-03-02T14:42:18.725Z,98823.8
2023-03-02T14:48:02.959Z,98822.4
2023-03-02T14:53:38.050Z,98814.6
2023-03-02T14:59:13.714Z,98813.5
2023-03-02T15:05:01.945Z,98813
2023-03-02T15:11:04.251Z,98812.3
2023-03-02T15:17:00.664Z,98808
2023-03-02T15:22:37.921Z,98810.5
2023-03-02T15:28:16.522Z,98810.3
2023-03-02T15:33:52.746Z,98812.9
2023-03-02T15:39:28.790Z,98799.7
2023-03-02T15:45:07.058Z,98802.8
2023-03-02T15:50:44.086Z,98809.3
2023-03-02T15:56:19.059Z,98810.5
2023-03-02T16:01:54.581Z,98816.5
2023-03-02T16:07:30.154Z,98813.6
2023-03-02T16:13:07.750Z,98816.7
2023-03-02T16:18:43.065Z,98811.3
2023-03-02T16:24:19.203Z,98812.5
2023-03-02T16:29:57.224Z,98805
2023-03-02T16:35:32.373Z,98808.3
2023-03-02T16:41:54.050Z,98809.7
2023-03-02T16:47:30.548Z,98814.4
2023-03-02T16:53:05.922Z,98826.5
2023-03-02T16:58:42.250Z,98830.6
2023-03-02T17:04:18.138Z,98836
2023-03-02T17:09:53.864Z,98848.7
2023-03-02T17:15:29.996Z,98855.5
2023-03-02T17:21:05.719Z,98864.2
2023-03-02T17:26:49.042Z,98870.5
2023-03-02T17:32:25.340Z,98876.1
2023-03-02T17:38:02.958Z,98888.8
2023-03-02T17:43:47.457Z,98895
2023-03-02T17:49:22.384Z,98903.9
2023-03-02T17:55:01.147Z,98911
2023-03-02T18:00:39.195Z,98916.1
2023-03-02T18:06:28.659Z,98927.9
2023-03-02T18:12:03.766Z,98941.8
2023-03-02T18:17:38.610Z,98948.7
2023-03-02T18:23:35.624Z,98959.8
2023-03-02T18:29:17.581Z,98973.6
2023-03-02T18:34:53.162Z,98983.2
2023-03-02T18:40:31.682Z,98992.5
2023-03-02T18:46:09.330Z,98997.2
2023-03-02T18:51:58.078Z,99004
2023-03-02T18:57:41.913Z,99009.9
2023-03-02T19:04:01.139Z,99012.3
2023-03-02T19:09:57.721Z,99011.3
2023-03-02T19:15:42.075Z,99017.2
2023-03-02T19:21:43.729Z,99018.3
2023-03-02T19:27:19.348Z,99024.5
2023-03-02T19:32:55.066Z,99024.2
2023-03-02T19:38:34.691Z,99027.8
2023-03-02T19:44:19.792Z,99034.6
2023-03-02T19:50:05.726Z,99035.6
2023-03-02T19:55:40.907Z,99038.1
2023-03-02T20:01:23.167Z,99044.8
2023-03-02T20:07:02.889Z,99045.5
2023-03-02T20:13:20.195Z,99055.2
2023-03-02T20:19:02.203Z,99062.6
2023-03-02T20:24:42.022Z,99069.1
2023-03-02T20:30:21.861Z,99075.4
2023-03-02T20:36:24.973Z,99078.7
2023-03-02T20:42:29.052Z,99083.1
2023-03-02T20:48:09.095Z,99077.5
2023-03-02T20:53:46.501Z,99078.8
2023-03-02T20:59:27.116Z,99080.4
2023-03-02T21:05:04.219Z,99083.2
2023-03-02T21:10:39.864Z,99084.5
2023-03-02T21:16:30.421Z,99084.5
2023-03-02T21:22:06.032Z,99088.5
2023-03-02T21:27:44.415Z,99091.5
2023-03-02T21:33:25.770Z,99093.9
2023-03-02T21:39:05.533Z,99094
2023-03-02T21:44:44.241Z,99090.7
2023-03-02T21:50:43.979Z,99095
2023-03-02T21:56:40.808Z,99096.5
2023-03-02T22:02:38.322Z,99098.2
2023-03-02T22:08:37.755Z,99096.3
2023-03-02T22:14:11.971Z,99095.8
2023-03-02T22:19:51.326Z,99093
2023-03-02T22:25:26.539Z,99087.9
2023-03-02T22:31:10.989Z,99082.4
2023-03-02T22:36:46.240Z,99076.8
2023-03-02T22:42:33.614Z,99067.6
2023-03-02T22:48:17.545Z,99066.3
2023-03-02T22:53:55.767Z,99062.2
2023-03-02T23:00:07.390Z,99057.9
2023-03-02T23:06:20.352Z,99053.2
2023-03-02T23:11:53.522Z,99048.6
2023-03-02T23:17:33.981Z,99048.1
2023-03-02T23:23:19.153Z,99043.7
2023-03-02T23:28:53.945Z,99043.4
2023-03-02T23:34:29.338Z,99043.8
2023-03-02T23:40:11.917Z,99041
2023-03-02T23:45:47.449Z,99044
2023-03-02T23:51:44.924Z,99042.3
2023-03-02T23:57:19.929Z,99039.9
